CYKL

Schefferville Airport

Schefferville, Quebec, Canada
METAR CYKL 181603Z AUTO VRB06KT 3SM -SN OVC038 M21/M25 A2952 RMK SLP060
Observed Flight Rules
Dec-18 @ 16:03 UTC (27 minutes ago) Marginal Visual Flight Rules
Wind Visibility Clouds Conditions
Variable at 6 knots 3 miles
  • Overcast at 3,800' AGL
  • Light Snow
Temperatures Readings
Current -21°C / -6°F
Dewpoint -25°C / -13°F
Humidity 70%
Altimeter 29.52" Hg
Pressure 1006 hPa
Elevation 521
METAR CYKL 181603Z AUTO VRB06KT 3SM -SN OVC038 M21/M25 A2952 RMK SLP060
Observed Flight Rules
Dec-18 @ 16:03 UTC
(27 minutes ago)
MVFR
Wind Visibility
Variable at 6 knots 3 miles
Clouds
  • Overcast at 3,800' AGL
Conditions
  • Light Snow
Temperature Dewpoint
-21°C / -6°F -25°C / -13°F
Humidity Altimeter Pressure
70% 29.52" Hg 1006 hPa